Terminal Aerodrome Forecast
Issued by NWS Cleveland, OH

Home | Current Version | Previous Version | Text Only | Print | Product List | Glossary On
Versions: 1 2 3 4 5 6 7 8 9 10 11 12 13 14 15 16 17 18 19 20 21 22
004
FTUS41 KCLE 110920 AAB
TAFERI
TAF AMD
KERI 110920Z 1109/1206 28010KT P6SM -SN SCT025 OVC035
      TEMPO 1109/1112 5SM -SN BKN025
     FM111200 27008KT P6SM SCT025 OVC035
     FM120000 18008KT 6SM -SN SCT015 OVC025=

USA.gov is the U.S. government's official web portal to all federal, state and local government web resources and services.